AirNav   Phillips 66 Aviation Fuel
 
 577 users online  

MN31 L & M Aerodrome
Litchfield, Minnesota, USA

GOING TO LITCHFIELD?


FAA INFORMATION EFFECTIVE 20 JULY 2017

Location

FAA Identifier: MN31
Lat/Long: 45-03-43.8640N / 094-34-44.9730W
45-03.731067N / 094-34.749550W
45.0621844 / -94.5791592
(estimated)
Elevation: 1205 ft. / 367 m (estimated)
Variation: 04E (1990)
From city: 4 miles SW of LITCHFIELD, MN
Time zone: UTC -5 (UTC -6 during Standard Time)
Zip code: 55355

Airport Operations

Airport use: Private use. Permission required prior to landing
Activation date: 03/1993
Control tower: no
ARTCC: MINNEAPOLIS CENTER
FSS: PRINCETON FLIGHT SERVICE STATION
Attendance: MAY-NOV 24 HOURS/DAY
Wind indicator: yes
Segmented circle: no

Airport Communications

WX AWOS-3 at LJF (4 nm NE): 109.0 (320-693-6456)
WX AWOS-3 at HCD (15 nm SE): 118.525 (320-587-3343)
WX AWOS-3 at PEX (20 nm N): 120.35 (320-243-4538)

Nearby radio navigation aids

VOR radial/distance  VOR name  Freq  Var
DWNr247/5.5DARWIN VORTAC109.0007E
BDHr094/23.4WILLMAR VOR/DME113.7004E
STCr214/36.6ST CLOUD VOR/DME112.1003E

 
NDB name  Hdg/Dist  Freq  Var  ID
GLENCOE308/27.740703EGYL --. -.-- .-..

Airport Services

Runway Information

Runway 18/36

Dimensions: 2480 x 50 ft. / 756 x 15 m
Surface: turf, in good condition
RUNWAY 18  RUNWAY 36
Traffic pattern: leftleft
Displaced threshold: 300 ft.no
Obstructions: 15 ft. roadnone

Airport Ownership and Management from official FAA records

Ownership: Privately-owned
Owner: EDWARD J. BAUMER
59253 220TH ST
LITCHFIELD, MN 55355
Phone 302-693-9524
Manager: EDWARD J. BAUMER
59253 220TH ST
LITCHFIELD, MN 55355
Phone 302-693-9524

Airport Operational Statistics

Aircraft based on the field: 1
Single engine airplanes: 1
    

Additional Remarks

DO NOT CHART PER MINNESOTA DEPARTMENT OF TRANSPORTATION

Instrument Procedures

There are no published instrument procedures at MN31.

Some nearby airports with instrument procedures:

KLJF - Litchfield Municipal Airport (4 nm NE)
KHCD - Hutchinson Municipal Airport-Butler Field (15 nm SE)
KPEX - Paynesville Municipal Airport (20 nm N)
KBDH - Willmar Municipal Airport-John L Rice Fiel (24 nm W)
KOVL - Olivia Regional Airport (26 nm SW)
 
Loc | Ops | Rwys | IFR | FBO | Links
Com | Nav | Svcs | Stats | Notes


 
Area around MN31 (L & M Aerodrome)
 
Road maps at: MapQuest Bing Google
 
Aerial photo
No photo
 
Sectional chart

 
Airport distance calculator
Flying to L & M Aerodrome? Find the distance to fly.

From to MN31

Sunrise and sunset
Times for 20-Jul-2017
 Local
(UTC-5)
 Zulu
(UTC)
Morning civil twilight05:1610:16
Sunrise05:5210:52
Sunset20:5801:58
Evening civil twilight21:3302:33

Current date and time
Zulu (UTC)  21-Jul-2017 04:50:32
Local (UTC-5)  20-Jul-2017 23:50:32
 
METAR
KLJF 
4nm NE 
210433Z AUTO 00000KT 10SM CLR 22/21 A2997 RMK AO2
KHCD 
15nm SE 
210434Z AUTO 00000KT 4SM BR CLR 19/19 A2998 RMK AO2 T01890187
KPEX 
20nm N 
210433Z AUTO 00000KT 10SM CLR 20/19 A2997 RMK AO2 T02010193
TAF
KSTC 
37nm NE 
201743Z 2018/2118 13003KT P6SM FEW250 FM211500 13007KT P6SM SCT040 BKN110
KRWF 
37nm SW 
201743Z 2018/2118 14006KT P6SM SCT250 FM211200 14007KT P6SM SCT040 BKN120
NOTAMs
Click for the latest NOTAMs
NOTAMs are issued by the DoD/FAA and will open in a separate window not controlled by AirNav.

 

 
 

Would you like to see your business listed on this page?

 If your business provides an interesting product or service to pilots, flight crews, aircraft, or users of the L & M Aerodrome, you should consider listing it here.  To start the listing process, click on the button below
 
Add a business
 

Other Pages about L & M Aerodrome

Update a link
 
Copyright © AirNav, LLC. All rights reserved. Privacy Policy  Contact